createdAt,value
2017-08-25T00:00:02.350Z,85.00
2017-08-25T00:02:29.922Z,86.50
2017-08-25T00:04:57.570Z,85.90
2017-08-25T00:07:25.126Z,85.80
2017-08-25T00:09:52.690Z,86.20
2017-08-25T00:12:20.277Z,86.30
2017-08-25T00:14:47.834Z,86.40
2017-08-25T00:17:16.374Z,86.40
2017-08-25T00:19:43.925Z,86.30
2017-08-25T00:22:11.485Z,85.90
2017-08-25T00:24:39.072Z,86.20
2017-08-25T00:27:06.637Z,86.30
2017-08-25T00:29:34.234Z,87.00
2017-08-25T00:32:01.795Z,86.40
2017-08-25T00:34:29.390Z,87.10
2017-08-25T00:36:56.974Z,87.10
2017-08-25T00:39:24.532Z,87.30
2017-08-25T00:41:52.144Z,87.40
2017-08-25T00:44:19.718Z,88.20
2017-08-25T00:46:47.274Z,88.40
2017-08-25T00:49:14.857Z,88.10
2017-08-25T00:51:42.425Z,88.00
2017-08-25T00:54:10.193Z,87.90
2017-08-25T00:56:37.769Z,87.80
2017-08-25T00:59:05.332Z,87.70
2017-08-25T01:01:32.926Z,87.20
2017-08-25T01:04:00.482Z,86.90
2017-08-25T01:06:28.140Z,86.60
2017-08-25T01:08:55.763Z,86.50
2017-08-25T01:11:23.367Z,86.60
2017-08-25T01:13:50.957Z,87.00
2017-08-25T01:16:18.525Z,87.20
2017-08-25T01:18:46.347Z,87.40
2017-08-25T01:21:13.922Z,87.10
2017-08-25T01:23:41.509Z,87.10
2017-08-25T01:26:09.131Z,87.20
2017-08-25T01:28:36.705Z,87.20
2017-08-25T01:31:04.613Z,87.00
2017-08-25T01:33:32.206Z,87.00
2017-08-25T01:35:59.777Z,86.70
2017-08-25T01:38:27.395Z,87.10
2017-08-25T01:40:54.970Z,87.50
2017-08-25T01:43:22.797Z,87.60
2017-08-25T01:45:50.374Z,88.50
2017-08-25T01:48:17.967Z,88.80
2017-08-25T01:50:45.582Z,88.60
2017-08-25T01:53:13.162Z,88.40
2017-08-25T01:55:41.009Z,87.90
2017-08-25T01:58:08.589Z,87.50
2017-08-25T02:00:36.175Z,87.90
2017-08-25T02:03:03.750Z,88.30
2017-08-25T02:05:31.326Z,88.40
2017-08-25T02:07:59.030Z,88.30
2017-08-25T02:10:26.608Z,88.60
2017-08-25T02:12:54.178Z,88.70
2017-08-25T02:15:21.774Z,89.70
2017-08-25T02:17:49.334Z,89.40
2017-08-25T02:20:17.006Z,89.60
2017-08-25T02:22:44.590Z,89.80
2017-08-25T02:25:12.149Z,89.80
2017-08-25T02:27:39.730Z,89.50
2017-08-25T02:30:07.303Z,88.70
2017-08-25T02:32:35.111Z,88.50
2017-08-25T02:35:02.674Z,88.70
2017-08-25T02:37:30.240Z,89.90
2017-08-25T02:39:57.821Z,89.30
2017-08-25T02:42:25.382Z,89.60
2017-08-25T02:44:52.990Z,90.30
2017-08-25T02:47:20.550Z,90.20
2017-08-25T02:49:48.106Z,90.20
2017-08-25T02:52:15.718Z,90.20
2017-08-25T02:54:43.275Z,90.40
2017-08-25T02:57:10.893Z,90.50
2017-08-25T02:59:38.451Z,90.70
2017-08-25T03:02:06.020Z,90.70
2017-08-25T03:04:33.605Z,90.40
2017-08-25T03:07:01.181Z,90.50
2017-08-25T03:09:29.001Z,90.50
2017-08-25T03:11:56.549Z,90.40
2017-08-25T03:14:24.109Z,90.30
2017-08-25T03:16:51.690Z,90.40
2017-08-25T03:19:19.247Z,90.30
2017-08-25T03:21:47.102Z,90.70
2017-08-25T03:24:14.673Z,90.10
2017-08-25T03:26:42.281Z,90.50
2017-08-25T03:29:09.953Z,90.50
2017-08-25T03:31:37.517Z,90.30
2017-08-25T03:34:05.300Z,90.30
2017-08-25T03:36:32.882Z,90.40
2017-08-25T03:39:00.436Z,90.40
2017-08-25T03:41:28.023Z,90.40
2017-08-25T03:43:55.583Z,90.50
2017-08-25T03:46:23.515Z,90.70
2017-08-25T03:48:51.097Z,90.80
2017-08-25T03:51:18.699Z,90.20
2017-08-25T03:53:46.279Z,90.20
2017-08-25T03:56:13.841Z,89.50
2017-08-25T03:58:41.426Z,89.70
2017-08-25T04:01:08.989Z,89.10
2017-08-25T04:03:36.551Z,89.80
2017-08-25T04:06:04.142Z,89.80
2017-08-25T04:08:31.709Z,89.80
2017-08-25T04:10:59.299Z,89.90
2017-08-25T04:13:26.859Z,89.50
2017-08-25T04:15:54.418Z,89.30
2017-08-25T04:18:22.056Z,89.70
2017-08-25T04:20:49.606Z,89.60
2017-08-25T04:23:17.410Z,90.00
2017-08-25T04:25:44.962Z,90.10
2017-08-25T04:28:12.522Z,90.10
2017-08-25T04:30:40.193Z,90.10
2017-08-25T04:33:07.788Z,90.00
2017-08-25T04:35:35.611Z,90.20
2017-08-25T04:38:03.172Z,90.50
2017-08-25T04:40:30.762Z,90.30
2017-08-25T04:42:58.362Z,89.60
2017-08-25T04:45:25.950Z,89.30
2017-08-25T04:47:53.716Z,89.10
2017-08-25T04:50:21.281Z,89.10
2017-08-25T04:52:48.839Z,89.10
2017-08-25T04:55:16.419Z,89.30
2017-08-25T04:57:43.982Z,89.60
2017-08-25T05:00:11.993Z,89.50
2017-08-25T05:02:39.546Z,89.70
2017-08-25T05:05:07.118Z,89.50
2017-08-25T05:07:34.699Z,89.30
2017-08-25T05:10:02.262Z,89.30
2017-08-25T05:12:29.854Z,89.20
2017-08-25T05:14:57.417Z,89.20
2017-08-25T05:17:25.195Z,89.60
2017-08-25T05:19:52.777Z,89.80
2017-08-25T05:22:20.338Z,89.70
2017-08-25T05:24:48.151Z,89.40
2017-08-25T05:27:15.723Z,89.20
2017-08-25T05:29:43.289Z,88.80
2017-08-25T05:32:10.871Z,88.50
2017-08-25T05:34:38.431Z,88.40
2017-08-25T05:37:06.039Z,87.60
2017-08-25T05:39:33.607Z,86.60
2017-08-25T05:42:01.177Z,86.20
2017-08-25T05:44:28.874Z,86.20
2017-08-25T05:46:56.451Z,85.80
2017-08-25T05:49:24.359Z,86.00
2017-08-25T05:51:51.963Z,85.70
2017-08-25T05:54:19.528Z,85.40
2017-08-25T05:56:47.113Z,84.30
2017-08-25T05:59:14.717Z,84.70
2017-08-25T06:01:42.462Z,84.40
2017-08-25T06:04:10.022Z,83.80
2017-08-25T06:06:37.594Z,83.00
2017-08-25T06:09:05.197Z,82.90
2017-08-25T06:11:32.748Z,83.40
2017-08-25T06:14:00.547Z,82.70
2017-08-25T06:16:28.110Z,82.80
2017-08-25T06:18:55.665Z,82.00
2017-08-25T06:21:23.255Z,81.20
2017-08-25T06:23:50.847Z,82.60
2017-08-25T06:26:18.637Z,83.20
2017-08-25T06:28:46.197Z,83.50
2017-08-25T06:31:13.754Z,83.90
2017-08-25T06:33:41.343Z,81.40
2017-08-25T06:36:08.912Z,78.60
2017-08-25T06:38:36.747Z,76.10
2017-08-25T06:41:04.318Z,74.90
2017-08-25T06:43:31.883Z,72.30
2017-08-25T06:45:59.465Z,70.20
2017-08-25T06:48:27.063Z,70.70
2017-08-25T06:50:54.668Z,68.70
2017-08-25T06:53:22.235Z,65.50
2017-08-25T06:55:49.790Z,61.70
2017-08-25T06:58:17.385Z,60.40
2017-08-25T07:00:44.980Z,60.10
2017-08-25T07:03:12.577Z,58.00
2017-08-25T07:05:40.136Z,57.20
2017-08-25T07:08:07.694Z,54.30
2017-08-25T07:10:35.272Z,56.40
2017-08-25T07:13:02.834Z,57.80
2017-08-25T07:15:30.639Z,56.20
2017-08-25T07:17:58.197Z,54.60
2017-08-25T07:20:27.074Z,52.20
2017-08-25T07:22:54.649Z,52.50
2017-08-25T07:25:22.201Z,50.70
2017-08-25T07:27:49.970Z,52.00
2017-08-25T07:30:17.525Z,51.50
2017-08-25T07:32:45.085Z,50.00
2017-08-25T07:35:12.673Z,49.50
2017-08-25T07:37:40.277Z,49.50
2017-08-25T07:40:08.483Z,51.50
2017-08-25T07:42:36.042Z,52.10
2017-08-25T07:45:03.601Z,51.00
2017-08-25T07:47:31.178Z,51.60
2017-08-25T07:49:58.737Z,50.40
2017-08-25T07:52:26.331Z,50.00
2017-08-25T07:54:53.890Z,48.60
2017-08-25T07:57:21.448Z,46.90
2017-08-25T07:59:49.030Z,45.40
2017-08-25T08:02:16.618Z,45.20
2017-08-25T08:04:44.231Z,43.60
2017-08-25T08:07:11.799Z,44.30
2017-08-25T08:09:39.358Z,42.80
2017-08-25T08:12:06.946Z,42.70
2017-08-25T08:14:34.519Z,41.90
2017-08-25T08:17:02.126Z,42.50
2017-08-25T08:19:29.680Z,43.60
2017-08-25T08:21:57.230Z,41.90
2017-08-25T08:24:24.806Z,41.20
2017-08-25T08:26:52.378Z,41.10
2017-08-25T08:29:20.170Z,40.80
2017-08-25T08:31:47.733Z,39.90
2017-08-25T08:34:15.298Z,40.10
2017-08-25T08:36:42.907Z,39.80
2017-08-25T08:39:10.467Z,40.40
2017-08-25T08:41:38.167Z,40.00
2017-08-25T08:44:05.751Z,40.00
2017-08-25T08:46:33.325Z,39.70
2017-08-25T08:49:00.898Z,39.50
2017-08-25T08:51:28.458Z,39.30
2017-08-25T08:53:56.509Z,39.90
2017-08-25T08:56:24.078Z,38.40
2017-08-25T08:58:51.630Z,38.90
2017-08-25T09:01:19.207Z,38.50
2017-08-25T09:03:46.763Z,40.50
2017-08-25T09:06:20.117Z,39.40
2017-08-25T09:08:47.726Z,38.20
2017-08-25T09:11:15.280Z,36.60
2017-08-25T09:13:42.859Z,37.50
2017-08-25T09:16:10.422Z,38.00
2017-08-25T09:18:38.280Z,37.90
2017-08-25T09:21:05.838Z,38.30
2017-08-25T09:23:33.399Z,37.80
2017-08-25T09:26:00.974Z,36.60
2017-08-25T09:28:28.526Z,38.80
2017-08-25T09:30:56.320Z,40.30
2017-08-25T09:33:23.869Z,39.70
2017-08-25T09:35:51.447Z,38.00
2017-08-25T09:38:19.031Z,38.70
2017-08-25T09:40:46.586Z,37.60
2017-08-25T09:43:14.202Z,37.50
2017-08-25T09:45:42.034Z,37.00
2017-08-25T09:48:09.595Z,36.60
2017-08-25T09:50:37.174Z,36.20
2017-08-25T09:53:04.754Z,37.10
2017-08-25T09:55:32.348Z,39.10
2017-08-25T09:57:59.934Z,37.90
2017-08-25T10:00:27.683Z,37.40
2017-08-25T10:02:55.250Z,36.80
2017-08-25T10:05:22.805Z,36.30
2017-08-25T10:07:50.380Z,35.30
2017-08-25T10:10:17.938Z,34.80
2017-08-25T10:12:45.518Z,35.50
2017-08-25T10:15:13.078Z,34.70
2017-08-25T10:17:40.853Z,34.40
2017-08-25T10:20:08.417Z,34.30
2017-08-25T10:22:35.974Z,34.20
2017-08-25T10:25:03.562Z,33.40
2017-08-25T10:27:31.117Z,34.60
2017-08-25T10:29:59.462Z,34.10
2017-08-25T10:32:27.019Z,33.40
2017-08-25T10:35:06.698Z,32.50
2017-08-25T10:37:46.846Z,33.90
2017-08-25T10:40:26.674Z,33.80
2017-08-25T10:43:06.012Z,32.50
2017-08-25T10:45:33.643Z,32.40
2017-08-25T10:48:01.206Z,33.10
2017-08-25T10:50:28.759Z,31.70
2017-08-25T10:52:56.346Z,32.90
2017-08-25T10:55:23.908Z,32.80
2017-08-25T10:57:51.531Z,32.40
2017-08-25T11:00:19.100Z,32.60
2017-08-25T11:02:46.763Z,33.00
2017-08-25T11:05:14.342Z,32.90
2017-08-25T11:07:41.894Z,33.40
2017-08-25T11:10:09.874Z,33.60
2017-08-25T11:12:37.426Z,33.60
2017-08-25T11:15:04.991Z,33.60
2017-08-25T11:17:32.566Z,33.60
2017-08-25T11:20:00.142Z,34.20
2017-08-25T11:22:28.164Z,34.80
2017-08-25T11:24:55.726Z,34.60
2017-08-25T11:27:23.290Z,33.80
2017-08-25T11:29:50.893Z,33.50
2017-08-25T11:32:18.451Z,32.60
2017-08-25T11:34:46.279Z,33.60
2017-08-25T11:37:13.834Z,33.30
2017-08-25T11:39:41.393Z,32.70
2017-08-25T11:42:08.989Z,34.10
2017-08-25T11:44:36.547Z,34.20
2017-08-25T11:47:04.230Z,34.80
2017-08-25T11:49:31.799Z,34.20
2017-08-25T11:51:59.357Z,34.10
2017-08-25T11:54:27.173Z,35.20
2017-08-25T11:56:54.925Z,35.20
2017-08-25T11:59:23.560Z,35.00
2017-08-25T12:01:51.121Z,35.00
2017-08-25T12:04:18.694Z,34.60
2017-08-25T12:06:46.269Z,35.10
2017-08-25T12:09:13.829Z,34.90
2017-08-25T12:11:41.714Z,34.80
2017-08-25T12:14:09.285Z,34.10
2017-08-25T12:16:36.862Z,35.60
2017-08-25T12:19:04.462Z,36.00
2017-08-25T12:21:32.048Z,34.40
2017-08-25T12:24:00.042Z,34.60
2017-08-25T12:26:27.605Z,35.20
2017-08-25T12:28:55.219Z,35.60
2017-08-25T12:31:22.890Z,35.10
2017-08-25T12:33:50.466Z,35.40
2017-08-25T12:36:18.047Z,35.60
2017-08-25T12:38:45.622Z,36.40
2017-08-25T12:41:13.566Z,36.70
2017-08-25T12:43:41.268Z,37.40
2017-08-25T12:46:08.855Z,36.60
2017-08-25T12:48:36.471Z,36.40
2017-08-25T12:51:04.034Z,36.60
2017-08-25T12:53:31.639Z,36.20
2017-08-25T12:55:59.216Z,36.40
2017-08-25T12:58:27.192Z,35.80
2017-08-25T13:00:54.746Z,36.90
2017-08-25T13:03:22.307Z,36.80
2017-08-25T13:05:49.885Z,35.60
2017-08-25T13:08:17.463Z,35.90
2017-08-25T13:10:45.053Z,34.50
2017-08-25T13:13:12.623Z,33.80
2017-08-25T13:15:40.619Z,35.10
2017-08-25T13:18:08.178Z,34.40
2017-08-25T13:20:35.733Z,36.80
2017-08-25T13:23:03.314Z,37.40
2017-08-25T13:25:30.881Z,38.00
2017-08-25T13:27:58.474Z,38.90
2017-08-25T13:30:26.041Z,37.70
2017-08-25T13:32:53.789Z,37.10
2017-08-25T13:35:21.358Z,36.20
2017-08-25T13:37:48.913Z,37.10
2017-08-25T13:40:16.502Z,37.40
2017-08-25T13:42:44.073Z,38.10
2017-08-25T13:45:12.042Z,38.20
2017-08-25T13:47:40.010Z,38.50
2017-08-25T13:50:07.571Z,39.00
2017-08-25T13:52:35.153Z,38.70
2017-08-25T13:55:03.487Z,38.50
2017-08-25T13:57:31.090Z,38.50
2017-08-25T13:59:59.253Z,39.90
2017-08-25T14:02:26.854Z,39.60
2017-08-25T14:04:54.417Z,39.90
2017-08-25T14:07:22.079Z,40.70
2017-08-25T14:09:50.379Z,39.70
2017-08-25T14:12:17.941Z,39.70
2017-08-25T14:14:45.524Z,38.80
2017-08-25T14:17:13.082Z,39.80
2017-08-25T14:19:41.009Z,40.50
2017-08-25T14:22:08.565Z,39.30
2017-08-25T14:24:36.552Z,40.00
2017-08-25T14:27:04.743Z,39.80
2017-08-25T14:29:33.550Z,41.70
2017-08-25T14:32:01.285Z,41.70
2017-08-25T14:34:28.855Z,41.50
2017-08-25T14:36:56.416Z,41.80
2017-08-25T14:39:23.998Z,40.60
2017-08-25T14:41:52.343Z,41.50
2017-08-25T14:44:20.201Z,42.30
2017-08-25T14:46:47.762Z,39.60
2017-08-25T14:49:15.329Z,40.20
2017-08-25T14:51:42.914Z,40.50
2017-08-25T14:54:10.476Z,39.80
2017-08-25T14:56:38.058Z,40.60
2017-08-25T14:59:05.662Z,40.80
2017-08-25T15:01:33.530Z,40.80
2017-08-25T15:04:01.091Z,39.80
2017-08-25T15:06:28.655Z,40.00
2017-08-25T15:08:56.259Z,40.90
2017-08-25T15:11:23.821Z,40.80
2017-08-25T15:13:51.641Z,42.60
2017-08-25T15:16:19.202Z,42.70
2017-08-25T15:18:46.755Z,42.80
2017-08-25T15:21:14.340Z,42.70
2017-08-25T15:23:41.900Z,41.60
2017-08-25T15:26:09.493Z,42.40
2017-08-25T15:28:37.055Z,42.70
2017-08-25T15:31:04.950Z,42.90
2017-08-25T15:33:32.523Z,43.30
2017-08-25T15:36:00.080Z,42.50
2017-08-25T15:38:28.430Z,43.40
2017-08-25T15:40:55.992Z,43.40
2017-08-25T15:43:23.582Z,42.80
2017-08-25T15:45:51.167Z,43.00
2017-08-25T15:48:19.049Z,42.60
2017-08-25T15:50:46.686Z,40.90
2017-08-25T15:53:14.843Z,41.20
2017-08-25T15:55:42.423Z,41.80
2017-08-25T15:58:09.990Z,44.20
2017-08-25T16:00:38.675Z,44.60
2017-08-25T16:03:06.354Z,44.60
2017-08-25T16:05:34.163Z,45.30
2017-08-25T16:08:01.804Z,44.20
2017-08-25T16:10:29.375Z,45.60
2017-08-25T16:12:56.962Z,45.90
2017-08-25T16:15:24.568Z,44.90
2017-08-25T16:17:52.234Z,45.70
2017-08-25T16:20:19.849Z,45.60
2017-08-25T16:22:47.689Z,47.90
2017-08-25T16:25:15.537Z,47.30
2017-08-25T16:27:43.097Z,47.40
2017-08-25T16:30:10.949Z,47.10
2017-08-25T16:32:38.510Z,47.90
2017-08-25T16:35:06.090Z,47.20
2017-08-25T16:37:33.657Z,46.10
2017-08-25T16:40:01.728Z,46.60
2017-08-25T16:42:29.279Z,48.00
2017-08-25T16:44:56.838Z,46.60
2017-08-25T16:47:24.431Z,45.20
2017-08-25T16:49:51.990Z,45.80
2017-08-25T16:52:19.703Z,47.40
2017-08-25T16:54:47.299Z,46.40
2017-08-25T16:57:14.858Z,46.60
2017-08-25T16:59:42.435Z,47.10
2017-08-25T17:02:09.990Z,47.80
2017-08-25T17:04:37.590Z,47.70
2017-08-25T17:07:05.384Z,48.00
2017-08-25T17:09:33.289Z,48.30
2017-08-25T17:12:00.842Z,49.20
2017-08-25T17:14:28.476Z,49.40
2017-08-25T17:16:56.917Z,49.70
2017-08-25T17:19:24.491Z,50.10
2017-08-25T17:21:52.107Z,49.60
2017-08-25T17:24:19.677Z,50.30
2017-08-25T17:26:47.355Z,51.20
2017-08-25T17:29:14.922Z,51.60
2017-08-25T17:31:42.489Z,51.80
2017-08-25T17:34:10.125Z,51.70
2017-08-25T17:36:37.674Z,51.90
2017-08-25T17:39:05.305Z,51.90
2017-08-25T17:41:32.909Z,51.90
2017-08-25T17:44:00.717Z,51.90
2017-08-25T17:46:28.278Z,50.90
2017-08-25T17:48:55.875Z,52.50
2017-08-25T17:51:23.454Z,52.30
2017-08-25T17:53:51.012Z,52.30
2017-08-25T17:56:18.630Z,52.40
2017-08-25T17:58:46.197Z,53.00
2017-08-25T18:01:13.823Z,53.40
2017-08-25T18:03:41.399Z,53.60
2017-08-25T18:06:08.982Z,53.80
2017-08-25T18:08:36.642Z,54.20
2017-08-25T18:11:04.198Z,54.50
2017-08-25T18:13:31.780Z,54.80
2017-08-25T18:15:59.421Z,55.10
2017-08-25T18:18:27.069Z,55.80
2017-08-25T18:20:54.647Z,56.20
2017-08-25T18:23:22.232Z,56.10
2017-08-25T18:25:49.870Z,57.10
2017-08-25T18:28:18.536Z,57.70
2017-08-25T18:30:46.260Z,58.80
2017-08-25T18:33:13.829Z,58.60
2017-08-25T18:35:41.435Z,58.90
2017-08-25T18:38:09.003Z,59.40
2017-08-25T18:40:36.576Z,59.60
2017-08-25T18:43:04.543Z,59.60
2017-08-25T18:45:32.182Z,59.90
2017-08-25T18:47:59.863Z,60.30
2017-08-25T18:50:27.433Z,60.50
2017-08-25T18:52:55.120Z,60.60
2017-08-25T18:55:22.719Z,61.10
2017-08-25T18:57:51.185Z,61.50
2017-08-25T19:00:18.787Z,62.00
2017-08-25T19:02:46.778Z,62.50
2017-08-25T19:05:14.456Z,62.80
2017-08-25T19:07:42.033Z,63.30
2017-08-25T19:10:09.629Z,64.00
2017-08-25T19:12:37.195Z,64.20
2017-08-25T19:15:04.762Z,64.60
2017-08-25T19:17:32.354Z,64.90
2017-08-25T19:19:59.917Z,65.10
2017-08-25T19:22:27.533Z,66.20
2017-08-25T19:24:55.197Z,65.60
2017-08-25T19:27:23.010Z,65.80
2017-08-25T19:29:50.575Z,65.90
2017-08-25T19:32:18.134Z,66.50
2017-08-25T19:34:45.741Z,66.40
2017-08-25T19:37:13.304Z,66.60
2017-08-25T19:39:40.951Z,67.00
2017-08-25T19:42:08.526Z,67.30
2017-08-25T19:44:36.166Z,67.10
2017-08-25T19:47:03.731Z,67.10
2017-08-25T19:49:31.326Z,67.30
2017-08-25T19:51:58.925Z,67.80
2017-08-25T19:54:26.579Z,67.80
2017-08-25T19:56:54.317Z,68.10
2017-08-25T19:59:21.888Z,68.20
2017-08-25T20:01:49.766Z,68.20
2017-08-25T20:04:17.359Z,68.50
2017-08-25T20:06:44.938Z,68.00
2017-08-25T20:09:12.529Z,68.60
2017-08-25T20:11:40.096Z,68.80
2017-08-25T20:14:07.683Z,68.90
2017-08-25T20:16:35.256Z,69.40
2017-08-25T20:19:02.898Z,69.30
2017-08-25T20:21:30.568Z,69.50
2017-08-25T20:23:58.224Z,69.60
2017-08-25T20:26:25.908Z,69.60
2017-08-25T20:28:53.474Z,69.90
2017-08-25T20:31:21.086Z,70.10
2017-08-25T20:33:48.827Z,70.40
2017-08-25T20:36:16.481Z,70.00
2017-08-25T20:38:44.081Z,69.90
2017-08-25T20:41:11.688Z,70.10
2017-08-25T20:43:39.266Z,70.70
2017-08-25T20:46:06.826Z,70.90
2017-08-25T20:48:34.415Z,71.20
2017-08-25T20:51:01.987Z,72.00
2017-08-25T20:53:30.153Z,73.60
2017-08-25T20:55:57.812Z,72.80
2017-08-25T20:58:26.438Z,72.50
2017-08-25T21:00:54.058Z,72.50
2017-08-25T21:03:21.623Z,73.20
2017-08-25T21:05:49.302Z,73.50
2017-08-25T21:08:16.937Z,74.50
2017-08-25T21:10:45.649Z,75.30
2017-08-25T21:13:13.268Z,75.20
2017-08-25T21:15:40.928Z,75.80
2017-08-25T21:18:08.526Z,76.60
2017-08-25T21:20:36.098Z,76.70
2017-08-25T21:23:03.710Z,78.40
2017-08-25T21:25:31.309Z,79.60
2017-08-25T21:27:58.945Z,80.80
2017-08-25T21:30:26.545Z,81.10
2017-08-25T21:32:54.153Z,82.00
2017-08-25T21:35:21.735Z,82.70
2017-08-25T21:37:49.344Z,83.00
2017-08-25T21:40:16.979Z,82.70
2017-08-25T21:42:44.546Z,82.60
2017-08-25T21:45:12.183Z,82.90
2017-08-25T21:47:39.772Z,82.60
2017-08-25T21:50:07.363Z,82.80
2017-08-25T21:52:34.989Z,83.10
2017-08-25T21:55:02.583Z,83.20
2017-08-25T21:57:30.277Z,83.40
2017-08-25T21:59:57.838Z,83.90
2017-08-25T22:02:25.574Z,83.80
2017-08-25T22:04:53.269Z,83.80
2017-08-25T22:07:20.846Z,83.50
2017-08-25T22:09:48.442Z,83.10
2017-08-25T22:12:16.126Z,82.80
2017-08-25T22:14:43.719Z,82.90
2017-08-25T22:17:11.286Z,83.30
2017-08-25T22:19:39.106Z,83.40
2017-08-25T22:22:07.272Z,83.40
2017-08-25T22:24:35.454Z,83.80
2017-08-25T22:27:03.047Z,84.10
2017-08-25T22:29:31.179Z,85.00
2017-08-25T22:31:58.775Z,84.60
2017-08-25T22:34:26.339Z,84.40
2017-08-25T22:36:53.970Z,84.20
2017-08-25T22:39:21.534Z,84.10
2017-08-25T22:41:49.101Z,84.60
2017-08-25T22:44:16.699Z,85.20
2017-08-25T22:46:44.271Z,85.10
2017-08-25T22:49:11.866Z,84.60
2017-08-25T22:51:39.427Z,84.40
2017-08-25T22:54:07.502Z,84.20
2017-08-25T22:56:35.084Z,84.40
2017-08-25T22:59:02.674Z,84.30
2017-08-25T23:01:30.269Z,84.00
2017-08-25T23:03:57.837Z,83.70
2017-08-25T23:06:25.429Z,83.60
2017-08-25T23:08:52.993Z,83.20
2017-08-25T23:11:20.650Z,83.80
2017-08-25T23:13:48.231Z,84.10
2017-08-25T23:16:15.802Z,84.30
2017-08-25T23:18:43.398Z,84.20
2017-08-25T23:21:11.012Z,84.20
2017-08-25T23:23:38.618Z,84.70
2017-08-25T23:26:06.212Z,85.00
2017-08-25T23:28:34.014Z,85.10
2017-08-25T23:31:01.606Z,85.00
2017-08-25T23:33:29.193Z,84.90
2017-08-25T23:35:56.810Z,84.70
2017-08-25T23:38:24.394Z,85.20
2017-08-25T23:40:51.997Z,85.00
2017-08-25T23:43:19.571Z,84.90
2017-08-25T23:45:47.361Z,84.70
2017-08-25T23:48:14.943Z,84.70
2017-08-25T23:50:42.565Z,84.40
2017-08-25T23:53:10.154Z,84.30
2017-08-25T23:55:37.730Z,84.40
2017-08-25T23:58:05.366Z,84.90
